Weather at McEntire Ranch Airport

Public forecast

Using degrees Fahrenheit for public forecast. Weather courtesy of forecast.io.

Closest aviation weather report (METAR) to McEntire Ranch Airport

Closest report is Big Spring Mc Mahon-Wrinkle Airport, 27.3 nm (50.6 km) NW. Retrieved 2021/07/28 01:15 UTC (5 minutes ago):

KBPG 280115Z AUTO 12007KT 10SM CLR 34/14 A3002 RMK AO2 T03370139

Closest aviation forecast (TAF) to McEntire Ranch Airport

Closest forecast is San Angelo Regional Mathis Field, 46.0 nm (85.2 km) SE. Retrieved 2021-07-28 00:22 UTC (58 minutes ago):

TAF KSJT 272320Z 2800/2824 09011KT P6SM VCSH SCT250 FM280300 12009KT P6SM BKN250